createdAt,value
2019-05-19T00:01:06.588Z,12.6
2019-05-19T00:02:20.407Z,12.7
2019-05-19T00:03:34.606Z,12.7
2019-05-19T00:04:48.781Z,12.7
2019-05-19T00:06:02.971Z,12.6
2019-05-19T00:07:17.136Z,12.7
2019-05-19T00:08:31.335Z,12.7
2019-05-19T00:09:45.495Z,12.7
2019-05-19T00:10:59.678Z,12.8
2019-05-19T00:12:13.928Z,12.7
2019-05-19T00:13:32.252Z,12.8
2019-05-19T00:14:42.197Z,12.5
2019-05-19T00:15:56.394Z,12.5
2019-05-19T00:17:10.558Z,12.4
2019-05-19T00:18:24.805Z,12.4
2019-05-19T00:19:38.909Z,12.5
2019-05-19T00:20:53.084Z,12.4
2019-05-19T00:22:07.258Z,12.5
2019-05-19T00:23:21.520Z,12.5
2019-05-19T00:24:35.638Z,12.5
2019-05-19T00:25:49.825Z,12.6
2019-05-19T00:27:03.977Z,12.6
2019-05-19T00:28:18.158Z,12.6
2019-05-19T00:29:32.339Z,12.5
2019-05-19T00:30:46.531Z,12.5
2019-05-19T00:32:00.709Z,12.5
2019-05-19T00:33:14.894Z,12.5
2019-05-19T00:34:29.107Z,12.5
2019-05-19T00:35:43.260Z,12.6
2019-05-19T00:36:57.568Z,12.6
2019-05-19T00:38:11.624Z,12.5
2019-05-19T00:39:25.858Z,12.5
2019-05-19T00:40:39.994Z,12.5
2019-05-19T00:41:54.200Z,12.5
2019-05-19T00:43:08.367Z,12.4
2019-05-19T00:44:22.610Z,12.4
2019-05-19T00:45:36.752Z,12.5
2019-05-19T00:46:50.932Z,12.5
2019-05-19T00:48:05.111Z,12.5
2019-05-19T00:49:19.318Z,12.5
2019-05-19T00:50:33.582Z,12.5
2019-05-19T00:51:47.755Z,12.5
2019-05-19T00:53:01.869Z,12.4
2019-05-19T00:54:16.124Z,12.4
2019-05-19T00:55:36.215Z,12.4
2019-05-19T00:56:44.416Z,12.4
2019-05-19T00:57:58.596Z,12.4
2019-05-19T00:59:12.782Z,12.4
2019-05-19T01:00:26.975Z,12.3
2019-05-19T01:01:41.143Z,12.1
2019-05-19T01:02:55.330Z,12
2019-05-19T01:04:09.500Z,11.9
2019-05-19T01:05:23.764Z,11.9
2019-05-19T01:06:37.906Z,11.7
2019-05-19T01:07:52.124Z,11.7
2019-05-19T01:09:06.233Z,11.8
2019-05-19T01:10:20.416Z,11.8
2019-05-19T01:11:34.686Z,11.9
2019-05-19T01:12:48.780Z,11.6
2019-05-19T01:14:02.994Z,11.6
2019-05-19T01:15:17.137Z,11.6
2019-05-19T01:16:31.347Z,11.5
2019-05-19T01:17:50.580Z,11.4
2019-05-19T01:18:59.718Z,11.6
2019-05-19T01:20:13.987Z,11.6
2019-05-19T01:21:28.055Z,11.6
2019-05-19T01:22:42.237Z,11.7
2019-05-19T01:23:56.617Z,11.9
2019-05-19T01:25:10.607Z,11.9
2019-05-19T01:26:24.789Z,12
2019-05-19T01:27:38.969Z,12
2019-05-19T01:28:53.150Z,12.1
2019-05-19T01:30:07.321Z,12
2019-05-19T01:31:21.544Z,12.1
2019-05-19T01:32:35.681Z,12.1
2019-05-19T01:33:49.898Z,12
2019-05-19T01:35:04.055Z,12.1
2019-05-19T01:36:18.265Z,12.1
2019-05-19T01:37:32.890Z,12
2019-05-19T01:38:51.345Z,12
2019-05-19T01:40:00.835Z,12
2019-05-19T01:41:14.957Z,12
2019-05-19T01:42:29.145Z,12
2019-05-19T01:43:43.424Z,11.9
2019-05-19T01:44:57.513Z,11.9
2019-05-19T01:46:11.704Z,11.8
2019-05-19T01:47:25.912Z,11.8
2019-05-19T01:48:40.074Z,11.8
2019-05-19T01:49:54.325Z,11.8
2019-05-19T01:51:08.447Z,11.8
2019-05-19T01:52:22.653Z,11.8
2019-05-19T01:53:36.836Z,11.9
2019-05-19T01:54:51.114Z,11.9
2019-05-19T01:56:05.203Z,11.8
2019-05-19T01:57:19.396Z,11.8
2019-05-19T01:58:33.643Z,11.8
2019-05-19T01:59:47.770Z,11.9
2019-05-19T02:01:01.988Z,11.8
2019-05-19T02:02:16.137Z,11.8
2019-05-19T02:03:30.317Z,11.8
2019-05-19T02:04:44.508Z,11.8
2019-05-19T02:05:58.694Z,11.8
2019-05-19T02:07:12.885Z,11.8
2019-05-19T02:08:27.150Z,11.7
2019-05-19T02:09:41.256Z,11.8
2019-05-19T02:10:55.445Z,11.7
2019-05-19T02:12:09.743Z,11.8
2019-05-19T02:13:23.813Z,11.8
2019-05-19T02:14:38.205Z,11.7
2019-05-19T02:15:52.195Z,11.7
2019-05-19T02:17:06.407Z,11.7
2019-05-19T02:18:20.571Z,11.6
2019-05-19T02:19:34.883Z,11.6
2019-05-19T02:20:48.934Z,11.6
2019-05-19T02:22:03.123Z,11.6
2019-05-19T02:23:17.298Z,11.5
2019-05-19T02:24:35.511Z,11.4
2019-05-19T02:25:49.748Z,11.3
2019-05-19T02:26:59.878Z,11.3
2019-05-19T02:28:14.151Z,11.3
2019-05-19T02:29:28.269Z,11.3
2019-05-19T02:30:42.451Z,11.4
2019-05-19T02:31:56.633Z,11.6
2019-05-19T02:33:10.806Z,11.6
2019-05-19T02:34:25.023Z,11.5
2019-05-19T02:35:39.199Z,11.6
2019-05-19T02:36:53.409Z,11.5
2019-05-19T02:38:07.656Z,11.6
2019-05-19T02:39:21.812Z,11.6
2019-05-19T02:40:35.964Z,11.6
2019-05-19T02:41:50.153Z,11.6
2019-05-19T02:43:04.422Z,11.6
2019-05-19T02:44:18.533Z,11.6
2019-05-19T02:45:32.714Z,11.5
2019-05-19T02:46:46.920Z,11.6
2019-05-19T02:48:01.200Z,11.5
2019-05-19T02:49:15.269Z,11.4
2019-05-19T02:50:29.506Z,11.6
2019-05-19T02:51:43.689Z,11.6
2019-05-19T02:52:57.855Z,11.6
2019-05-19T02:54:12.132Z,11.5
2019-05-19T02:55:26.227Z,11.5
2019-05-19T02:56:40.419Z,11.5
2019-05-19T02:57:54.620Z,11.5
2019-05-19T02:59:10.428Z,11.5
2019-05-19T03:00:22.978Z,11.4
2019-05-19T03:01:37.168Z,11.5
2019-05-19T03:02:51.348Z,11.5
2019-05-19T03:04:05.545Z,11.5
2019-05-19T03:05:19.719Z,11.4
2019-05-19T03:06:33.918Z,11.4
2019-05-19T03:07:48.172Z,11.4
2019-05-19T03:09:02.296Z,11.4
2019-05-19T03:10:16.507Z,11.4
2019-05-19T03:11:30.797Z,11.4
2019-05-19T03:12:44.865Z,11.3
2019-05-19T03:13:59.060Z,11.3
2019-05-19T03:15:13.245Z,11.3
2019-05-19T03:16:27.427Z,11.3
2019-05-19T03:17:41.644Z,11.4
2019-05-19T03:18:55.834Z,11.4
2019-05-19T03:20:10.140Z,11.4
2019-05-19T03:21:24.227Z,11.4
2019-05-19T03:22:38.431Z,11.4
2019-05-19T03:23:52.631Z,11.2
2019-05-19T03:25:06.926Z,11.2
2019-05-19T03:26:21.002Z,11.1
2019-05-19T03:27:35.217Z,11.2
2019-05-19T03:28:49.421Z,11.2
2019-05-19T03:30:03.606Z,11.3
2019-05-19T03:31:17.837Z,11.3
2019-05-19T03:32:32.056Z,11.3
2019-05-19T03:33:46.237Z,11.3
2019-05-19T03:35:00.417Z,11.4
2019-05-19T03:36:14.969Z,11.5
2019-05-19T03:37:28.781Z,11.4
2019-05-19T03:38:43.043Z,11.6
2019-05-19T03:39:57.544Z,11.6
2019-05-19T03:41:11.346Z,11.6
2019-05-19T03:42:25.540Z,11.6
2019-05-19T03:43:39.729Z,11.5
2019-05-19T03:44:53.922Z,11.6
2019-05-19T03:46:08.104Z,11.6
2019-05-19T03:48:36.568Z,11.6
2019-05-19T03:49:50.673Z,11.6
2019-05-19T03:51:04.840Z,11.6
2019-05-19T03:52:19.048Z,11.6
2019-05-19T03:53:33.209Z,11.6
2019-05-19T03:54:47.426Z,11.7
2019-05-19T03:56:01.583Z,11.7
2019-05-19T03:57:15.749Z,11.7
2019-05-19T03:58:30.021Z,11.7
2019-05-19T03:59:44.201Z,11.8
2019-05-19T04:00:58.358Z,11.7
2019-05-19T04:02:12.448Z,11.8
2019-05-19T04:03:26.651Z,11.7
2019-05-19T04:04:40.806Z,11.8
2019-05-19T04:05:54.999Z,11.7
2019-05-19T04:07:09.150Z,11.7
2019-05-19T04:08:23.434Z,11.8
2019-05-19T04:09:37.584Z,11.8
2019-05-19T04:10:51.744Z,11.8
2019-05-19T04:12:05.860Z,11.8
2019-05-19T04:13:20.038Z,11.8
2019-05-19T04:14:34.203Z,11.9
2019-05-19T04:15:48.368Z,11.9
2019-05-19T04:17:02.540Z,12
2019-05-19T04:18:16.811Z,12
2019-05-19T04:19:30.895Z,12
2019-05-19T04:20:45.110Z,12.1
2019-05-19T04:21:59.221Z,12
2019-05-19T04:23:13.404Z,12.1
2019-05-19T04:24:27.580Z,12.1
2019-05-19T04:25:41.785Z,12.1
2019-05-19T04:26:55.946Z,12.2
2019-05-19T04:28:10.132Z,12.1
2019-05-19T04:29:24.282Z,12.3
2019-05-19T04:30:38.493Z,12.3
2019-05-19T04:31:52.640Z,12.3
2019-05-19T04:33:06.791Z,12.4
2019-05-19T04:34:20.962Z,12.3
2019-05-19T04:35:35.158Z,12.4
2019-05-19T04:36:49.306Z,12.4
2019-05-19T04:38:03.491Z,12.6
2019-05-19T04:39:17.639Z,12.5
2019-05-19T04:40:31.816Z,12.5
2019-05-19T04:41:45.996Z,12.6
2019-05-19T04:43:00.151Z,12.7
2019-05-19T04:44:14.326Z,12.7
2019-05-19T04:45:28.583Z,12.8
2019-05-19T04:46:42.674Z,12.9
2019-05-19T04:47:56.838Z,12.9
2019-05-19T04:49:11.093Z,13.1
2019-05-19T04:50:25.192Z,13.2
2019-05-19T04:51:39.326Z,13.2
2019-05-19T04:52:53.483Z,13.3
2019-05-19T04:54:07.786Z,13.5
2019-05-19T04:55:21.955Z,13.5
2019-05-19T04:56:35.991Z,13.5
2019-05-19T04:57:50.130Z,13.5
2019-05-19T04:59:04.310Z,13.4
2019-05-19T05:00:18.457Z,13.5
2019-05-19T05:01:32.623Z,13.6
2019-05-19T05:02:46.752Z,13.5
2019-05-19T05:04:00.912Z,13.4
2019-05-19T05:05:15.070Z,13.5
2019-05-19T05:06:29.360Z,13.6
2019-05-19T05:07:43.396Z,13.6
2019-05-19T05:08:57.558Z,13.7
2019-05-19T05:10:11.784Z,13.8
2019-05-19T05:11:25.843Z,13.7
2019-05-19T05:12:39.995Z,13.7
2019-05-19T05:13:54.141Z,13.8
2019-05-19T05:15:08.299Z,13.9
2019-05-19T05:16:22.573Z,13.9
2019-05-19T05:17:36.818Z,14
2019-05-19T05:18:50.849Z,14
2019-05-19T05:20:04.893Z,14.1
2019-05-19T05:21:19.046Z,14.3
2019-05-19T05:22:33.204Z,14.3
2019-05-19T05:23:47.370Z,14.5
2019-05-19T05:25:02.579Z,14.7
2019-05-19T05:26:15.646Z,14.8
2019-05-19T05:27:29.863Z,14.8
2019-05-19T05:28:44.164Z,14.8
2019-05-19T05:29:58.112Z,15
2019-05-19T05:31:12.353Z,15.3
2019-05-19T05:32:26.390Z,15.6
2019-05-19T05:33:40.536Z,15.7
2019-05-19T05:34:54.674Z,15.8
2019-05-19T05:36:08.809Z,15.6
2019-05-19T05:37:22.963Z,15.7
2019-05-19T05:38:37.101Z,15.8
2019-05-19T05:39:51.318Z,16
2019-05-19T05:41:05.380Z,16.1
2019-05-19T05:42:19.516Z,16.1
2019-05-19T05:43:33.773Z,16.2
2019-05-19T05:44:47.794Z,16.4
2019-05-19T05:46:01.935Z,16.4
2019-05-19T05:47:16.139Z,16.4
2019-05-19T05:48:30.214Z,16.5
2019-05-19T05:49:44.338Z,16.6
2019-05-19T05:50:58.472Z,16.8
2019-05-19T05:52:12.581Z,17
2019-05-19T05:53:26.716Z,17.2
2019-05-19T05:54:40.845Z,17.4
2019-05-19T05:55:55.055Z,17.5
2019-05-19T05:57:09.089Z,17.7
2019-05-19T05:58:23.222Z,17.5
2019-05-19T05:59:37.377Z,17.6
2019-05-19T06:00:51.579Z,17.6
2019-05-19T06:02:05.601Z,17.8
2019-05-19T06:03:19.736Z,18
2019-05-19T06:04:33.860Z,18.2
2019-05-19T06:05:48.057Z,18.1
2019-05-19T06:07:02.162Z,18.2
2019-05-19T06:08:16.261Z,18.3
2019-05-19T06:09:30.368Z,18.5
2019-05-19T06:10:44.482Z,18.7
2019-05-19T06:11:58.545Z,18.9
2019-05-19T06:13:12.661Z,18.8
2019-05-19T06:14:26.772Z,18.8
2019-05-19T06:15:40.868Z,18.9
2019-05-19T06:16:54.985Z,19.1
2019-05-19T06:18:09.101Z,19.2
2019-05-19T06:19:23.182Z,19.5
2019-05-19T06:20:37.391Z,19.7
2019-05-19T06:21:51.420Z,19.7
2019-05-19T06:23:05.500Z,19.6
2019-05-19T06:24:19.599Z,19.6
2019-05-19T06:25:33.722Z,19.7
2019-05-19T06:26:48.261Z,19.8
2019-05-19T06:28:01.903Z,19.9
2019-05-19T06:29:16.009Z,20
2019-05-19T06:30:30.117Z,20.2
2019-05-19T06:31:44.307Z,20.2
2019-05-19T06:32:58.411Z,20.2
2019-05-19T06:34:12.418Z,20.2
2019-05-19T06:35:26.504Z,20.3
2019-05-19T06:36:40.634Z,20.7
2019-05-19T06:37:54.723Z,21
2019-05-19T06:39:08.967Z,21.2
2019-05-19T06:40:22.892Z,21.3
2019-05-19T06:41:37.961Z,21.7
2019-05-19T06:42:51.571Z,21.6
2019-05-19T06:44:05.832Z,21.6
2019-05-19T06:45:19.369Z,21.1
2019-05-19T06:46:33.352Z,20.8
2019-05-19T06:47:47.430Z,20.7
2019-05-19T06:49:01.549Z,20.9
2019-05-19T06:50:15.727Z,21.2
2019-05-19T06:51:29.720Z,21.3
2019-05-19T06:52:43.807Z,21.2
2019-05-19T06:53:57.904Z,20.9
2019-05-19T06:55:12.085Z,20.2
2019-05-19T06:56:26.105Z,20.1
2019-05-19T06:57:40.294Z,20.2
2019-05-19T06:58:54.314Z,20.2
2019-05-19T07:00:08.404Z,20.3
2019-05-19T07:01:22.507Z,20.2
2019-05-19T07:02:36.699Z,20.5
2019-05-19T07:03:50.724Z,20.4
2019-05-19T07:05:07.163Z,20.4
2019-05-19T07:06:21.034Z,20.4
2019-05-19T07:07:32.953Z,20.3
2019-05-19T07:08:47.202Z,20.3
2019-05-19T07:10:01.344Z,20.2
2019-05-19T07:11:22.144Z,20.3
2019-05-19T07:12:29.344Z,20.4
2019-05-19T07:13:43.446Z,20.3
2019-05-19T07:14:57.670Z,20.2
2019-05-19T07:16:11.668Z,20.1
2019-05-19T07:17:25.732Z,19.8
2019-05-19T07:18:39.840Z,19.7
2019-05-19T07:19:53.928Z,19.8
2019-05-19T07:21:08.051Z,19.5
2019-05-19T07:22:22.155Z,19.3
2019-05-19T07:23:36.222Z,19.3
2019-05-19T07:24:50.412Z,19.2
2019-05-19T07:26:04.515Z,19.4
2019-05-19T07:27:18.551Z,19.7
2019-05-19T07:28:32.642Z,20
2019-05-19T07:29:46.767Z,20.2
2019-05-19T07:31:00.856Z,20.2
2019-05-19T07:32:14.969Z,20.4
2019-05-19T07:33:29.071Z,20.7
2019-05-19T07:34:43.170Z,21
2019-05-19T07:35:57.392Z,21.4
2019-05-19T07:37:11.362Z,21.6
2019-05-19T07:38:25.433Z,21.5
2019-05-19T07:39:39.528Z,21.4
2019-05-19T07:40:54.905Z,21.4
2019-05-19T07:42:07.711Z,21.2
2019-05-19T07:43:21.803Z,21.4
2019-05-19T07:44:35.888Z,21.2
2019-05-19T07:45:51.066Z,21.2
2019-05-19T07:47:04.152Z,21
2019-05-19T07:48:18.176Z,21
2019-05-19T07:49:32.265Z,20.9
2019-05-19T07:50:51.383Z,20.8
2019-05-19T07:52:00.412Z,20.9
2019-05-19T07:53:14.509Z,21.1
2019-05-19T07:54:28.668Z,21.1
2019-05-19T07:55:42.656Z,21.3
2019-05-19T07:56:56.754Z,21.3
2019-05-19T07:58:10.840Z,21.6
2019-05-19T07:59:24.929Z,21.7
2019-05-19T08:00:39.062Z,21.9
2019-05-19T08:01:53.111Z,21.8
2019-05-19T08:03:07.227Z,21.6
2019-05-19T08:04:21.310Z,21.6
2019-05-19T08:05:35.391Z,21.9
2019-05-19T08:06:49.491Z,21.7
2019-05-19T08:08:03.621Z,21.8
2019-05-19T08:09:21.254Z,22.1
2019-05-19T08:10:31.753Z,22.4
2019-05-19T08:11:45.896Z,23
2019-05-19T08:12:59.908Z,23.5
2019-05-19T08:14:13.988Z,23.9
2019-05-19T08:15:28.041Z,24.2
2019-05-19T08:16:42.110Z,24.7
2019-05-19T08:17:56.194Z,25.2
2019-05-19T08:19:10.206Z,24.9
2019-05-19T08:20:24.271Z,24.9
2019-05-19T08:21:38.302Z,25.1
2019-05-19T08:22:52.449Z,25.1
2019-05-19T08:24:06.454Z,24.5
2019-05-19T08:25:20.459Z,25.3
2019-05-19T08:26:36.208Z,26
2019-05-19T08:27:48.537Z,25.5
2019-05-19T08:29:02.542Z,24.9
2019-05-19T08:30:16.637Z,24.9
2019-05-19T08:31:30.606Z,24.7
2019-05-19T08:32:44.613Z,24.2
2019-05-19T08:33:58.688Z,22.9
2019-05-19T08:35:12.716Z,22.2
2019-05-19T08:36:26.845Z,22.2
2019-05-19T08:37:40.946Z,22.9
2019-05-19T08:40:08.997Z,23.4
2019-05-19T08:41:22.948Z,24
2019-05-19T08:42:36.988Z,24.4
2019-05-19T08:43:51.035Z,24
2019-05-19T08:45:05.076Z,24
2019-05-19T08:46:19.120Z,24.2
2019-05-19T08:47:33.189Z,24.7
2019-05-19T08:48:47.266Z,25.1
2019-05-19T08:50:01.242Z,25.6
2019-05-19T08:51:15.251Z,26.2
2019-05-19T08:52:30.727Z,26.2
2019-05-19T08:53:43.296Z,25.6
2019-05-19T08:55:00.359Z,24.8
2019-05-19T08:56:11.361Z,23.6
2019-05-19T08:57:25.452Z,23.2
2019-05-19T08:58:39.434Z,22.1
2019-05-19T08:59:53.500Z,21.8
2019-05-19T09:01:07.674Z,21.6
2019-05-19T09:02:21.685Z,21.6
2019-05-19T09:04:49.788Z,21.5
2019-05-19T09:06:03.841Z,21.6
2019-05-19T09:07:17.893Z,21.9
2019-05-19T09:08:31.947Z,23
2019-05-19T09:09:51.004Z,23.8
2019-05-19T09:11:04.636Z,24.7
2019-05-19T09:12:14.134Z,25.6
2019-05-19T09:13:28.181Z,26.3
2019-05-19T09:14:42.402Z,27.2
2019-05-19T09:15:56.257Z,27.6
2019-05-19T09:17:10.305Z,27.7
2019-05-19T09:18:24.342Z,26.9
2019-05-19T09:19:38.352Z,26.2
2019-05-19T09:20:57.236Z,25.7
2019-05-19T09:22:06.444Z,26.2
2019-05-19T09:23:20.387Z,26.2
2019-05-19T09:24:34.411Z,26
2019-05-19T09:25:48.416Z,25.5
2019-05-19T09:27:02.454Z,25.3
2019-05-19T09:28:16.453Z,25.4
2019-05-19T09:30:44.501Z,25.2
2019-05-19T09:33:12.602Z,25.9
2019-05-19T09:34:26.567Z,26.2
2019-05-19T09:35:40.547Z,26.5
2019-05-19T09:36:54.602Z,27.2
2019-05-19T09:38:09.938Z,26.9
2019-05-19T09:39:22.725Z,26.4
2019-05-19T09:40:36.710Z,26.6
2019-05-19T09:41:50.638Z,27.1
2019-05-19T09:43:04.673Z,27.4
2019-05-19T09:44:18.791Z,27.1
2019-05-19T09:46:46.661Z,28.1
2019-05-19T09:48:00.676Z,28
2019-05-19T09:49:14.675Z,27.9
2019-05-19T09:50:28.804Z,26.9
2019-05-19T09:51:42.822Z,26.9
2019-05-19T09:52:56.705Z,27.5
2019-05-19T09:54:10.712Z,28.4
2019-05-19T09:55:24.811Z,28.2
2019-05-19T09:56:38.740Z,27.3
2019-05-19T09:57:53.190Z,26.5
2019-05-19T09:59:06.811Z,26.9
2019-05-19T10:00:20.775Z,27.3
2019-05-19T10:01:34.755Z,26.5
2019-05-19T10:02:48.764Z,26.9
2019-05-19T10:04:02.754Z,27.7
2019-05-19T10:06:30.798Z,26.5
2019-05-19T10:07:44.783Z,26.4
2019-05-19T10:08:58.793Z,26.5
2019-05-19T10:10:12.793Z,26.4
2019-05-19T10:11:26.832Z,26.4
2019-05-19T10:12:40.825Z,26.2
2019-05-19T10:13:54.872Z,26.4
2019-05-19T10:15:08.881Z,25.9
2019-05-19T10:16:22.937Z,26.4
2019-05-19T10:17:36.911Z,26.3
2019-05-19T10:18:51.080Z,25.9
2019-05-19T10:20:04.954Z,25.8
2019-05-19T10:21:19.154Z,25.6
2019-05-19T10:22:33.099Z,25.1
2019-05-19T10:23:47.076Z,24.8
2019-05-19T10:25:01.119Z,24.7
2019-05-19T10:26:15.248Z,24.4
2019-05-19T10:27:29.369Z,24.1
2019-05-19T10:28:43.262Z,24.7
2019-05-19T10:29:57.309Z,25.8
2019-05-19T10:31:11.333Z,27
2019-05-19T10:32:25.362Z,26.9
2019-05-19T10:33:39.375Z,27.2
2019-05-19T10:34:53.397Z,27.7
2019-05-19T10:36:07.403Z,28.6
2019-05-19T10:37:21.496Z,29.2
2019-05-19T10:38:35.391Z,29
2019-05-19T10:39:49.409Z,29.3
2019-05-19T10:41:03.395Z,28.5
2019-05-19T10:42:17.419Z,26.9
2019-05-19T10:43:31.490Z,25.7
2019-05-19T10:44:45.543Z,25.1
2019-05-19T10:45:59.478Z,24.2
2019-05-19T10:47:13.509Z,24
2019-05-19T10:48:27.559Z,24
2019-05-19T10:49:41.655Z,24
2019-05-19T10:50:57.499Z,23.7
2019-05-19T10:52:10.823Z,23.6
2019-05-19T10:53:23.766Z,23.6
2019-05-19T10:54:37.899Z,24.4
2019-05-19T10:55:51.907Z,24.8
2019-05-19T10:57:06.215Z,24.8
2019-05-19T10:58:20.130Z,25
2019-05-19T10:59:34.105Z,25.4
2019-05-19T11:00:48.153Z,26.8
2019-05-19T11:02:02.188Z,27.9
2019-05-19T11:03:16.325Z,28.8
2019-05-19T11:04:30.233Z,28.9
2019-05-19T11:05:44.403Z,29.2
2019-05-19T11:06:58.281Z,28.5
2019-05-19T11:08:12.312Z,27.9
2019-05-19T11:09:26.331Z,27.5
2019-05-19T11:10:40.675Z,28
2019-05-19T11:11:54.341Z,27.6
2019-05-19T11:13:08.336Z,28.2
2019-05-19T11:14:22.346Z,28.8
2019-05-19T11:15:36.391Z,29.2
2019-05-19T11:16:50.462Z,29.5
2019-05-19T11:18:04.380Z,29.3
2019-05-19T11:19:18.399Z,29.7
2019-05-19T11:20:32.464Z,30.4
2019-05-19T11:21:46.402Z,28.8
2019-05-19T11:23:00.418Z,27.2
2019-05-19T11:24:14.455Z,25.9
2019-05-19T11:25:31.743Z,24.7
2019-05-19T11:26:42.507Z,24.7
2019-05-19T11:29:10.720Z,25.2
2019-05-19T11:30:24.649Z,26.4
2019-05-19T11:31:38.681Z,27.4
2019-05-19T11:32:52.729Z,28.5
2019-05-19T11:34:06.925Z,27.9
2019-05-19T11:36:34.855Z,25.6
2019-05-19T11:37:48.820Z,25.5
2019-05-19T11:39:02.859Z,24.6
2019-05-19T11:40:21.034Z,24.4
2019-05-19T11:41:31.168Z,24.8
2019-05-19T11:42:45.258Z,25
2019-05-19T11:43:59.089Z,25.4
2019-05-19T11:45:13.177Z,25.7
2019-05-19T11:46:27.240Z,26.2
2019-05-19T11:47:41.274Z,26.4
2019-05-19T11:48:55.328Z,26.8
2019-05-19T11:50:09.508Z,26.4
2019-05-19T11:51:23.460Z,25.6
2019-05-19T11:52:37.530Z,25.9
2019-05-19T11:53:51.666Z,26.6
2019-05-19T11:55:05.648Z,27.6
2019-05-19T11:56:19.664Z,28.5
2019-05-19T11:57:33.733Z,28.7
2019-05-19T11:58:47.743Z,28.3
2019-05-19T12:00:01.792Z,28
2019-05-19T12:01:15.820Z,27.5
2019-05-19T12:02:30.678Z,27.5
2019-05-19T12:03:44.019Z,26.9
2019-05-19T12:04:58.044Z,25.9
2019-05-19T12:06:11.999Z,25.2
2019-05-19T12:07:26.093Z,25.1
2019-05-19T12:08:40.128Z,25.1
2019-05-19T12:09:54.147Z,25.2
2019-05-19T12:11:08.219Z,25.1
2019-05-19T12:12:22.386Z,24.7
2019-05-19T12:13:36.324Z,24.4
2019-05-19T12:14:50.474Z,24.3
2019-05-19T12:16:04.633Z,24.6
2019-05-19T12:17:18.551Z,24.9
2019-05-19T12:18:32.718Z,24.9
2019-05-19T12:19:46.699Z,24.9
2019-05-19T12:21:00.764Z,24.9
2019-05-19T12:22:14.931Z,25
2019-05-19T12:23:28.936Z,24.9
2019-05-19T12:24:43.087Z,24.8
2019-05-19T12:27:11.158Z,25.9
2019-05-19T12:28:25.223Z,27.2
2019-05-19T12:29:39.290Z,28.5
2019-05-19T12:30:53.431Z,29.3
2019-05-19T12:32:07.593Z,29.8
2019-05-19T12:33:21.483Z,30.2
2019-05-19T12:34:35.481Z,30.3
2019-05-19T12:35:49.521Z,30.4
2019-05-19T12:37:03.531Z,31.4
2019-05-19T12:38:17.533Z,32.3
2019-05-19T12:39:31.560Z,31.9
2019-05-19T12:40:45.551Z,31.5
2019-05-19T12:41:59.579Z,29.8
2019-05-19T12:43:13.690Z,28.2
2019-05-19T12:44:27.616Z,28.7
2019-05-19T12:45:41.736Z,28.9
2019-05-19T12:46:55.670Z,28
2019-05-19T12:48:09.695Z,27.4
2019-05-19T12:49:23.732Z,25.9
2019-05-19T12:51:51.786Z,25.5
2019-05-19T12:53:05.902Z,25.4
2019-05-19T12:54:20.590Z,25.6
2019-05-19T12:55:34.048Z,25.6
2019-05-19T12:56:48.068Z,25.7
2019-05-19T12:58:02.055Z,25.6
2019-05-19T12:59:16.108Z,26.4
2019-05-19T13:00:30.168Z,27.2
2019-05-19T13:01:44.235Z,28.5
2019-05-19T13:02:58.254Z,30
2019-05-19T13:05:26.347Z,31
2019-05-19T13:06:40.340Z,31.3
2019-05-19T13:07:54.383Z,30.7
2019-05-19T13:09:08.384Z,30
2019-05-19T13:10:22.445Z,29.6
2019-05-19T13:11:36.651Z,28.6
2019-05-19T13:12:50.426Z,28.1
2019-05-19T13:14:04.440Z,27.4
2019-05-19T13:15:20.425Z,26.9
2019-05-19T13:16:32.519Z,26.5
2019-05-19T13:17:46.549Z,26.2
2019-05-19T13:19:00.588Z,26.1
2019-05-19T13:20:14.736Z,25.9
2019-05-19T13:21:28.691Z,25.6
2019-05-19T13:22:42.749Z,25.5
2019-05-19T13:23:56.791Z,25.5
2019-05-19T13:25:10.853Z,25.4
2019-05-19T13:26:24.904Z,25.1
2019-05-19T13:27:38.995Z,25.2
2019-05-19T13:28:53.052Z,25
2019-05-19T13:30:07.132Z,24.9
2019-05-19T13:31:21.287Z,24.8
2019-05-19T13:32:35.289Z,24.7
2019-05-19T13:33:49.345Z,24.2
2019-05-19T13:35:03.442Z,24.3
2019-05-19T13:36:17.510Z,24.5
2019-05-19T13:37:31.591Z,24.3
2019-05-19T13:38:45.687Z,24.3
2019-05-19T13:41:13.838Z,23.9
2019-05-19T13:42:27.925Z,23.6
2019-05-19T13:43:42.023Z,23.3
2019-05-19T13:44:56.192Z,23.1
2019-05-19T13:46:10.211Z,23.1
2019-05-19T13:47:24.271Z,23
2019-05-19T13:48:38.372Z,23
2019-05-19T13:49:52.459Z,22.8
2019-05-19T13:51:06.716Z,22.7
2019-05-19T13:52:20.621Z,22.6
2019-05-19T13:53:34.719Z,22.5
2019-05-19T13:54:48.808Z,22.3
2019-05-19T13:56:02.909Z,22.3
2019-05-19T13:57:16.997Z,22.4
2019-05-19T13:58:31.093Z,22.4
2019-05-19T13:59:45.189Z,22.6
2019-05-19T14:00:59.358Z,22.6
2019-05-19T14:02:13.376Z,22.6
2019-05-19T14:03:27.502Z,22.7
2019-05-19T14:04:41.581Z,22.6
2019-05-19T14:05:55.684Z,22.7
2019-05-19T14:07:09.794Z,22.5
2019-05-19T14:08:23.934Z,22.4
2019-05-19T14:09:38.002Z,22.3
2019-05-19T14:10:52.199Z,22.2
2019-05-19T14:12:06.209Z,22.2
2019-05-19T14:13:20.340Z,22.3
2019-05-19T14:14:34.526Z,22.3
2019-05-19T14:15:48.595Z,22.2
2019-05-19T14:18:16.768Z,22.1
2019-05-19T14:20:45.000Z,21.9
2019-05-19T14:21:59.085Z,21.7
2019-05-19T14:23:13.200Z,21.6
2019-05-19T14:24:27.319Z,21.4
2019-05-19T14:25:41.423Z,21.2
2019-05-19T14:26:55.523Z,21.2
2019-05-19T14:28:09.649Z,20.9
2019-05-19T14:29:23.756Z,20.5
2019-05-19T14:30:37.870Z,20.4
2019-05-19T14:31:52.009Z,20.1
2019-05-19T14:33:06.084Z,19.8
2019-05-19T14:34:20.221Z,19.6
2019-05-19T14:35:34.319Z,19.3
2019-05-19T14:36:48.451Z,19
2019-05-19T14:38:02.577Z,18.8
2019-05-19T14:39:20.539Z,18.7
2019-05-19T14:40:30.885Z,18.5
2019-05-19T14:42:59.037Z,18.3
2019-05-19T14:44:13.168Z,18.2
2019-05-19T14:45:27.310Z,18.2
2019-05-19T14:46:41.434Z,18
2019-05-19T14:47:55.552Z,18.2
2019-05-19T14:49:09.673Z,18.1
2019-05-19T14:50:23.807Z,18.2
2019-05-19T14:51:37.994Z,18.2
2019-05-19T14:52:52.071Z,18.2
2019-05-19T14:54:06.226Z,18.2
2019-05-19T14:55:20.346Z,18.2
2019-05-19T14:56:34.495Z,18
2019-05-19T14:57:48.608Z,17.9
2019-05-19T14:59:02.748Z,17.6
2019-05-19T15:00:16.892Z,17.3
2019-05-19T15:01:31.015Z,17.1
2019-05-19T15:03:59.288Z,16.6
2019-05-19T15:05:13.555Z,16.5
2019-05-19T15:06:27.566Z,16.5
2019-05-19T15:07:41.700Z,16.5
2019-05-19T15:08:55.828Z,16.4
2019-05-19T15:10:09.978Z,16.4
2019-05-19T15:11:24.120Z,16.5
2019-05-19T15:12:38.248Z,16.6
2019-05-19T15:13:52.466Z,16.5
2019-05-19T15:15:06.621Z,16.6
2019-05-19T15:16:20.652Z,16.5
2019-05-19T15:17:34.799Z,16.6
2019-05-19T15:18:49.017Z,16.7
2019-05-19T15:20:03.085Z,16.7
2019-05-19T15:21:17.191Z,16.6
2019-05-19T15:22:31.345Z,16.7
2019-05-19T15:23:45.488Z,16.6
2019-05-19T15:25:01.467Z,16.6
2019-05-19T15:26:13.749Z,16.6
2019-05-19T15:27:27.892Z,16.7
2019-05-19T15:28:42.146Z,16.8
2019-05-19T15:29:56.197Z,16.7
2019-05-19T15:31:10.438Z,16.7
2019-05-19T15:32:24.453Z,16.7
2019-05-19T15:33:38.678Z,16.7
2019-05-19T15:34:52.754Z,16.7
2019-05-19T15:36:06.949Z,16.7
2019-05-19T15:37:21.043Z,16.7
2019-05-19T15:38:35.177Z,16.6
2019-05-19T15:41:03.428Z,16.7
2019-05-19T15:42:17.552Z,16.8
2019-05-19T15:43:31.677Z,16.7
2019-05-19T15:44:50.754Z,16.7
2019-05-19T15:46:00.009Z,16.6
2019-05-19T15:47:14.098Z,16.6
2019-05-19T15:48:28.223Z,16.6
2019-05-19T15:49:42.357Z,16.6
2019-05-19T15:50:56.489Z,16.5
2019-05-19T15:52:10.638Z,16.7
2019-05-19T15:53:24.769Z,16.7
2019-05-19T15:54:39.241Z,16.7
2019-05-19T15:55:53.049Z,16.8
2019-05-19T15:57:07.178Z,16.8
2019-05-19T15:58:21.427Z,16.9
2019-05-19T15:59:35.471Z,17.1
2019-05-19T16:00:49.624Z,17.2
2019-05-19T16:02:03.865Z,17.2
2019-05-19T16:03:17.893Z,17.2
2019-05-19T16:04:32.046Z,17.2
2019-05-19T16:05:46.474Z,17.2
2019-05-19T16:07:00.370Z,17.2
2019-05-19T16:08:14.482Z,17.3
2019-05-19T16:09:28.659Z,17.3
2019-05-19T16:10:42.789Z,17.2
2019-05-19T16:11:56.915Z,17
2019-05-19T16:13:11.089Z,16.8
2019-05-19T16:14:25.204Z,16.6
2019-05-19T16:15:39.364Z,16.5
2019-05-19T16:16:53.511Z,16.4
2019-05-19T16:18:07.792Z,16.3
2019-05-19T16:19:22.978Z,16.1
2019-05-19T16:20:35.945Z,16.1
2019-05-19T16:21:50.187Z,16
2019-05-19T16:23:04.245Z,15.9
2019-05-19T16:24:18.416Z,15.8
2019-05-19T16:25:32.661Z,15.7
2019-05-19T16:26:46.687Z,15.5
2019-05-19T16:28:00.887Z,15.3
2019-05-19T16:29:14.990Z,15.3
2019-05-19T16:30:29.161Z,15.2
2019-05-19T16:31:43.293Z,15.2
2019-05-19T16:32:57.550Z,15.3
2019-05-19T16:34:11.600Z,15.2
2019-05-19T16:35:25.744Z,15.3
2019-05-19T16:36:39.886Z,15.3
2019-05-19T16:37:54.040Z,15.4
2019-05-19T16:39:08.177Z,15.5
2019-05-19T16:40:22.416Z,15.7
2019-05-19T16:41:36.554Z,15.8
2019-05-19T16:42:50.690Z,15.9
2019-05-19T16:44:04.853Z,15.9
2019-05-19T16:45:18.879Z,15.9
2019-05-19T16:46:33.016Z,16.1
2019-05-19T16:47:47.158Z,16.1
2019-05-19T16:49:01.314Z,16.3
2019-05-19T16:50:15.447Z,16.3
2019-05-19T16:51:29.752Z,16.3
2019-05-19T16:52:43.700Z,16.4
2019-05-19T16:53:57.840Z,16.4